sensor_id;sensor_type;location;lat;lon;timestamp;P1;durP1;ratioP1;P2;durP2;ratioP2
67193;SDS011;54121;53.508;49.422;2023-02-15T00:01:52;11.43;;;4.10;;
67193;SDS011;54121;53.508;49.422;2023-02-15T00:04:20;9.05;;;4.03;;
67193;SDS011;54121;53.508;49.422;2023-02-15T00:06:48;11.55;;;5.13;;
67193;SDS011;54121;53.508;49.422;2023-02-15T00:09:15;14.85;;;5.72;;
67193;SDS011;54121;53.508;49.422;2023-02-15T00:11:42;13.52;;;6.20;;
67193;SDS011;54121;53.508;49.422;2023-02-15T00:14:14;15.65;;;6.15;;
67193;SDS011;54121;53.508;49.422;2023-02-15T00:16:49;15.45;;;5.55;;
67193;SDS011;54121;53.508;49.422;2023-02-15T00:19:18;11.38;;;5.43;;
67193;SDS011;54121;53.508;49.422;2023-02-15T00:21:45;15.48;;;5.93;;
67193;SDS011;54121;53.508;49.422;2023-02-15T00:24:13;14.02;;;6.57;;
67193;SDS011;54121;53.508;49.422;2023-02-15T00:26:41;10.95;;;4.70;;
67193;SDS011;54121;53.508;49.422;2023-02-15T00:29:09;11.80;;;4.68;;
67193;SDS011;54121;53.508;49.422;2023-02-15T00:31:37;12.35;;;5.18;;
67193;SDS011;54121;53.508;49.422;2023-02-15T00:34:04;9.13;;;3.45;;
67193;SDS011;54121;53.508;49.422;2023-02-15T00:36:33;13.60;;;3.83;;
67193;SDS011;54121;53.508;49.422;2023-02-15T00:38:59;12.15;;;5.25;;
67193;SDS011;54121;53.508;49.422;2023-02-15T00:41:26;10.15;;;4.85;;
67193;SDS011;54121;53.508;49.422;2023-02-15T00:43:52;7.88;;;3.72;;
67193;SDS011;54121;53.508;49.422;2023-02-15T00:46:19;10.23;;;4.32;;
67193;SDS011;54121;53.508;49.422;2023-02-15T00:48:45;8.25;;;4.13;;
67193;SDS011;54121;53.508;49.422;2023-02-15T00:51:11;5.22;;;2.70;;
67193;SDS011;54121;53.508;49.422;2023-02-15T00:53:38;10.15;;;4.07;;
67193;SDS011;54121;53.508;49.422;2023-02-15T00:56:04;11.23;;;3.63;;
67193;SDS011;54121;53.508;49.422;2023-02-15T00:58:31;13.10;;;5.30;;
67193;SDS011;54121;53.508;49.422;2023-02-15T01:01:02;9.45;;;4.65;;
67193;SDS011;54121;53.508;49.422;2023-02-15T01:03:31;8.43;;;4.45;;
67193;SDS011;54121;53.508;49.422;2023-02-15T01:05:57;10.77;;;4.75;;
67193;SDS011;54121;53.508;49.422;2023-02-15T01:08:24;10.57;;;4.43;;
67193;SDS011;54121;53.508;49.422;2023-02-15T01:10:51;12.57;;;5.60;;
67193;SDS011;54121;53.508;49.422;2023-02-15T01:13:17;10.82;;;5.05;;
67193;SDS011;54121;53.508;49.422;2023-02-15T01:15:44;12.65;;;5.47;;
67193;SDS011;54121;53.508;49.422;2023-02-15T01:18:11;11.15;;;5.53;;
67193;SDS011;54121;53.508;49.422;2023-02-15T01:20:39;15.45;;;5.57;;
67193;SDS011;54121;53.508;49.422;2023-02-15T01:23:07;9.88;;;5.03;;
67193;SDS011;54121;53.508;49.422;2023-02-15T01:25:34;11.05;;;4.95;;
67193;SDS011;54121;53.508;49.422;2023-02-15T01:28:01;10.95;;;5.07;;
67193;SDS011;54121;53.508;49.422;2023-02-15T01:30:28;11.52;;;4.82;;
67193;SDS011;54121;53.508;49.422;2023-02-15T01:32:55;10.38;;;4.03;;
67193;SDS011;54121;53.508;49.422;2023-02-15T01:35:22;17.00;;;6.63;;
67193;SDS011;54121;53.508;49.422;2023-02-15T01:37:48;11.38;;;4.35;;
67193;SDS011;54121;53.508;49.422;2023-02-15T01:40:17;9.43;;;3.63;;
67193;SDS011;54121;53.508;49.422;2023-02-15T01:42:44;10.20;;;4.75;;
67193;SDS011;54121;53.508;49.422;2023-02-15T01:45:24;11.45;;;6.10;;
67193;SDS011;54121;53.508;49.422;2023-02-15T01:47:58;10.60;;;4.75;;
67193;SDS011;54121;53.508;49.422;2023-02-15T01:50:40;4.78;;;2.78;;
67193;SDS011;54121;53.508;49.422;2023-02-15T01:56:02;9.45;;;4.32;;
67193;SDS011;54121;53.508;49.422;2023-02-15T01:58:34;10.00;;;4.35;;
67193;SDS011;54121;53.508;49.422;2023-02-15T02:01:02;13.70;;;5.47;;
67193;SDS011;54121;53.508;49.422;2023-02-15T02:03:39;13.73;;;5.07;;
67193;SDS011;54121;53.508;49.422;2023-02-15T02:06:19;7.32;;;4.22;;
67193;SDS011;54121;53.508;49.422;2023-02-15T02:08:46;12.98;;;5.05;;
67193;SDS011;54121;53.508;49.422;2023-02-15T02:11:14;7.63;;;4.00;;
67193;SDS011;54121;53.508;49.422;2023-02-15T02:13:41;12.95;;;5.03;;
67193;SDS011;54121;53.508;49.422;2023-02-15T02:22:07;10.20;;;4.22;;
67193;SDS011;54121;53.508;49.422;2023-02-15T02:24:43;12.55;;;5.97;;
67193;SDS011;54121;53.508;49.422;2023-02-15T02:32:50;13.40;;;4.93;;
67193;SDS011;54121;53.508;49.422;2023-02-15T02:35:52;18.45;;;4.05;;
67193;SDS011;54121;53.508;49.422;2023-02-15T02:41:16;11.02;;;4.70;;
67193;SDS011;54121;53.508;49.422;2023-02-15T02:43:57;10.48;;;4.57;;
67193;SDS011;54121;53.508;49.422;2023-02-15T02:49:31;9.23;;;4.05;;
67193;SDS011;54121;53.508;49.422;2023-02-15T02:52:01;10.73;;;5.05;;
67193;SDS011;54121;53.508;49.422;2023-02-15T02:54:30;8.68;;;3.85;;
67193;SDS011;54121;53.508;49.422;2023-02-15T02:56:59;12.00;;;4.60;;
67193;SDS011;54121;53.508;49.422;2023-02-15T02:59:33;17.45;;;7.32;;
67193;SDS011;54121;53.508;49.422;2023-02-15T03:05:03;12.88;;;5.38;;
67193;SDS011;54121;53.508;49.422;2023-02-15T03:07:34;8.38;;;4.72;;
67193;SDS011;54121;53.508;49.422;2023-02-15T03:10:02;13.95;;;4.78;;
67193;SDS011;54121;53.508;49.422;2023-02-15T03:12:34;9.35;;;4.28;;
67193;SDS011;54121;53.508;49.422;2023-02-15T03:15:06;8.73;;;4.53;;
67193;SDS011;54121;53.508;49.422;2023-02-15T03:17:38;12.85;;;6.18;;
67193;SDS011;54121;53.508;49.422;2023-02-15T03:20:19;13.90;;;6.30;;
67193;SDS011;54121;53.508;49.422;2023-02-15T03:25:40;14.48;;;5.78;;
67193;SDS011;54121;53.508;49.422;2023-02-15T03:28:11;19.30;;;7.15;;
67193;SDS011;54121;53.508;49.422;2023-02-15T03:30:42;15.57;;;7.07;;
67193;SDS011;54121;53.508;49.422;2023-02-15T03:35:41;16.58;;;6.30;;
67193;SDS011;54121;53.508;49.422;2023-02-15T03:38:23;11.85;;;5.78;;
67193;SDS011;54121;53.508;49.422;2023-02-15T03:40:56;25.83;;;10.02;;
67193;SDS011;54121;53.508;49.422;2023-02-15T03:43:54;34.63;;;15.50;;
67193;SDS011;54121;53.508;49.422;2023-02-15T03:46:33;24.02;;;10.13;;
67193;SDS011;54121;53.508;49.422;2023-02-15T03:49:20;24.15;;;10.38;;
67193;SDS011;54121;53.508;49.422;2023-02-15T03:51:54;24.95;;;10.70;;
67193;SDS011;54121;53.508;49.422;2023-02-15T03:54:27;27.77;;;11.43;;
67193;SDS011;54121;53.508;49.422;2023-02-15T03:57:15;28.25;;;11.70;;
67193;SDS011;54121;53.508;49.422;2023-02-15T04:03:26;28.77;;;12.25;;
67193;SDS011;54121;53.508;49.422;2023-02-15T04:06:15;26.52;;;8.88;;
67193;SDS011;54121;53.508;49.422;2023-02-15T04:08:42;27.90;;;11.00;;
67193;SDS011;54121;53.508;49.422;2023-02-15T04:11:26;28.70;;;10.43;;
67193;SDS011;54121;53.508;49.422;2023-02-15T04:13:53;24.20;;;11.60;;
67193;SDS011;54121;53.508;49.422;2023-02-15T04:16:22;24.85;;;10.10;;
67193;SDS011;54121;53.508;49.422;2023-02-15T04:18:54;30.42;;;10.00;;
67193;SDS011;54121;53.508;49.422;2023-02-15T04:21:39;27.17;;;9.45;;
67193;SDS011;54121;53.508;49.422;2023-02-15T04:24:24;13.98;;;6.22;;
67193;SDS011;54121;53.508;49.422;2023-02-15T04:27:08;30.63;;;10.82;;
67193;SDS011;54121;53.508;49.422;2023-02-15T04:29:35;26.05;;;11.52;;
67193;SDS011;54121;53.508;49.422;2023-02-15T04:32:01;22.75;;;8.93;;
67193;SDS011;54121;53.508;49.422;2023-02-15T04:34:28;27.50;;;9.25;;
67193;SDS011;54121;53.508;49.422;2023-02-15T04:36:54;28.15;;;11.38;;
67193;SDS011;54121;53.508;49.422;2023-02-15T04:39:21;31.15;;;9.93;;
67193;SDS011;54121;53.508;49.422;2023-02-15T04:41:47;42.15;;;12.05;;
67193;SDS011;54121;53.508;49.422;2023-02-15T04:44:14;25.67;;;11.07;;
67193;SDS011;54121;53.508;49.422;2023-02-15T04:46:40;29.60;;;11.15;;
67193;SDS011;54121;53.508;49.422;2023-02-15T04:49:23;33.42;;;11.65;;
67193;SDS011;54121;53.508;49.422;2023-02-15T04:51:49;32.58;;;12.13;;
67193;SDS011;54121;53.508;49.422;2023-02-15T04:54:16;17.75;;;8.80;;
67193;SDS011;54121;53.508;49.422;2023-02-15T04:56:42;25.95;;;11.43;;
67193;SDS011;54121;53.508;49.422;2023-02-15T04:59:10;29.85;;;11.48;;
67193;SDS011;54121;53.508;49.422;2023-02-15T05:01:36;30.92;;;11.35;;
67193;SDS011;54121;53.508;49.422;2023-02-15T05:04:03;22.88;;;8.85;;
67193;SDS011;54121;53.508;49.422;2023-02-15T05:06:30;22.50;;;9.90;;
67193;SDS011;54121;53.508;49.422;2023-02-15T05:08:56;27.73;;;8.15;;
67193;SDS011;54121;53.508;49.422;2023-02-15T05:11:25;30.70;;;8.95;;
67193;SDS011;54121;53.508;49.422;2023-02-15T05:13:51;31.27;;;9.05;;
67193;SDS011;54121;53.508;49.422;2023-02-15T05:16:18;26.38;;;7.32;;
67193;SDS011;54121;53.508;49.422;2023-02-15T05:18:45;30.63;;;7.60;;
67193;SDS011;54121;53.508;49.422;2023-02-15T05:21:17;32.03;;;8.52;;
67193;SDS011;54121;53.508;49.422;2023-02-15T05:23:43;39.58;;;8.30;;
67193;SDS011;54121;53.508;49.422;2023-02-15T05:26:27;29.15;;;7.75;;
67193;SDS011;54121;53.508;49.422;2023-02-15T05:29:24;21.45;;;7.43;;
67193;SDS011;54121;53.508;49.422;2023-02-15T05:31:50;24.75;;;5.80;;
67193;SDS011;54121;53.508;49.422;2023-02-15T05:34:17;23.42;;;7.32;;
67193;SDS011;54121;53.508;49.422;2023-02-15T05:36:54;25.10;;;6.35;;
67193;SDS011;54121;53.508;49.422;2023-02-15T05:39:20;18.50;;;7.57;;
67193;SDS011;54121;53.508;49.422;2023-02-15T05:41:47;24.60;;;8.32;;
67193;SDS011;54121;53.508;49.422;2023-02-15T05:44:19;18.50;;;6.55;;
67193;SDS011;54121;53.508;49.422;2023-02-15T05:46:58;20.10;;;7.20;;
67193;SDS011;54121;53.508;49.422;2023-02-15T05:49:24;16.40;;;6.15;;
67193;SDS011;54121;53.508;49.422;2023-02-15T05:51:51;16.67;;;7.00;;
67193;SDS011;54121;53.508;49.422;2023-02-15T05:54:17;20.63;;;6.43;;
67193;SDS011;54121;53.508;49.422;2023-02-15T05:56:44;18.38;;;8.52;;
67193;SDS011;54121;53.508;49.422;2023-02-15T05:59:15;23.02;;;7.85;;
67193;SDS011;54121;53.508;49.422;2023-02-15T06:01:41;18.13;;;9.68;;
67193;SDS011;54121;53.508;49.422;2023-02-15T06:04:08;26.95;;;9.38;;
67193;SDS011;54121;53.508;49.422;2023-02-15T06:06:34;20.60;;;8.65;;
67193;SDS011;54121;53.508;49.422;2023-02-15T06:09:07;20.70;;;8.95;;
67193;SDS011;54121;53.508;49.422;2023-02-15T06:11:33;19.58;;;7.85;;
67193;SDS011;54121;53.508;49.422;2023-02-15T06:14:00;21.25;;;9.50;;
67193;SDS011;54121;53.508;49.422;2023-02-15T06:16:26;19.67;;;8.85;;
67193;SDS011;54121;53.508;49.422;2023-02-15T06:18:53;22.65;;;9.80;;
67193;SDS011;54121;53.508;49.422;2023-02-15T06:21:25;22.30;;;10.23;;
67193;SDS011;54121;53.508;49.422;2023-02-15T06:23:51;22.42;;;10.25;;
67193;SDS011;54121;53.508;49.422;2023-02-15T06:26:18;17.05;;;8.63;;
67193;SDS011;54121;53.508;49.422;2023-02-15T06:28:44;23.10;;;10.43;;
67193;SDS011;54121;53.508;49.422;2023-02-15T06:31:31;21.13;;;10.93;;
67193;SDS011;54121;53.508;49.422;2023-02-15T06:34:19;21.40;;;10.05;;
67193;SDS011;54121;53.508;49.422;2023-02-15T06:36:57;21.48;;;9.32;;
67193;SDS011;54121;53.508;49.422;2023-02-15T06:39:42;20.38;;;10.15;;
67193;SDS011;54121;53.508;49.422;2023-02-15T06:42:09;16.17;;;9.00;;
67193;SDS011;54121;53.508;49.422;2023-02-15T06:44:36;26.63;;;11.50;;
67193;SDS011;54121;53.508;49.422;2023-02-15T06:47:02;27.92;;;10.98;;
67193;SDS011;54121;53.508;49.422;2023-02-15T06:49:29;23.40;;;11.45;;
67193;SDS011;54121;53.508;49.422;2023-02-15T06:51:55;23.73;;;11.55;;
67193;SDS011;54121;53.508;49.422;2023-02-15T06:54:23;22.38;;;11.45;;
67193;SDS011;54121;53.508;49.422;2023-02-15T06:56:50;24.85;;;10.57;;
67193;SDS011;54121;53.508;49.422;2023-02-15T06:59:16;23.42;;;11.07;;
67193;SDS011;54121;53.508;49.422;2023-02-15T07:01:44;28.35;;;12.25;;
67193;SDS011;54121;53.508;49.422;2023-02-15T07:04:10;23.83;;;12.25;;
67193;SDS011;54121;53.508;49.422;2023-02-15T07:06:52;30.48;;;16.65;;
67193;SDS011;54121;53.508;49.422;2023-02-15T07:09:30;23.80;;;13.55;;
67193;SDS011;54121;53.508;49.422;2023-02-15T07:11:57;20.92;;;11.48;;
67193;SDS011;54121;53.508;49.422;2023-02-15T07:14:42;25.55;;;13.07;;
67193;SDS011;54121;53.508;49.422;2023-02-15T07:17:09;23.00;;;11.45;;
67193;SDS011;54121;53.508;49.422;2023-02-15T07:19:35;23.65;;;12.30;;
67193;SDS011;54121;53.508;49.422;2023-02-15T07:22:02;24.17;;;12.43;;
67193;SDS011;54121;53.508;49.422;2023-02-15T07:24:31;25.02;;;12.38;;
67193;SDS011;54121;53.508;49.422;2023-02-15T07:27:03;31.23;;;13.68;;
67193;SDS011;54121;53.508;49.422;2023-02-15T07:29:43;29.17;;;15.45;;
67193;SDS011;54121;53.508;49.422;2023-02-15T07:32:21;24.90;;;13.18;;
67193;SDS011;54121;53.508;49.422;2023-02-15T07:34:48;29.67;;;14.90;;
67193;SDS011;54121;53.508;49.422;2023-02-15T07:37:30;33.30;;;15.98;;
67193;SDS011;54121;53.508;49.422;2023-02-15T07:40:15;28.73;;;14.93;;
67193;SDS011;54121;53.508;49.422;2023-02-15T07:42:49;22.95;;;12.55;;
67193;SDS011;54121;53.508;49.422;2023-02-15T07:45:29;25.92;;;14.23;;
67193;SDS011;54121;53.508;49.422;2023-02-15T07:48:02;22.70;;;13.70;;
67193;SDS011;54121;53.508;49.422;2023-02-15T07:50:53;22.52;;;13.18;;
67193;SDS011;54121;53.508;49.422;2023-02-15T07:53:19;25.88;;;12.38;;
67193;SDS011;54121;53.508;49.422;2023-02-15T07:55:45;23.13;;;14.65;;
67193;SDS011;54121;53.508;49.422;2023-02-15T07:58:12;24.70;;;13.77;;
67193;SDS011;54121;53.508;49.422;2023-02-15T08:00:38;23.52;;;13.10;;
67193;SDS011;54121;53.508;49.422;2023-02-15T08:03:41;22.73;;;13.35;;
67193;SDS011;54121;53.508;49.422;2023-02-15T08:06:26;24.77;;;12.57;;
67193;SDS011;54121;53.508;49.422;2023-02-15T08:09:00;18.90;;;10.45;;
67193;SDS011;54121;53.508;49.422;2023-02-15T08:11:53;30.63;;;11.43;;
67193;SDS011;54121;53.508;49.422;2023-02-15T08:14:31;23.27;;;12.32;;
67193;SDS011;54121;53.508;49.422;2023-02-15T08:16:59;27.42;;;11.52;;
67193;SDS011;54121;53.508;49.422;2023-02-15T08:22:12;26.05;;;12.23;;
67193;SDS011;54121;53.508;49.422;2023-02-15T08:24:39;20.80;;;10.82;;
67193;SDS011;54121;53.508;49.422;2023-02-15T08:27:07;16.20;;;9.98;;
67193;SDS011;54121;53.508;49.422;2023-02-15T08:29:35;18.92;;;11.02;;
67193;SDS011;54121;53.508;49.422;2023-02-15T08:32:04;19.88;;;10.40;;
67193;SDS011;54121;53.508;49.422;2023-02-15T08:34:34;17.42;;;9.88;;
67193;SDS011;54121;53.508;49.422;2023-02-15T08:37:02;18.98;;;9.63;;
67193;SDS011;54121;53.508;49.422;2023-02-15T08:39:29;19.30;;;10.85;;
67193;SDS011;54121;53.508;49.422;2023-02-15T08:42:01;16.73;;;9.48;;
67193;SDS011;54121;53.508;49.422;2023-02-15T08:44:28;16.83;;;9.15;;
67193;SDS011;54121;53.508;49.422;2023-02-15T08:47:01;17.48;;;8.70;;
67193;SDS011;54121;53.508;49.422;2023-02-15T08:49:35;17.98;;;11.20;;
67193;SDS011;54121;53.508;49.422;2023-02-15T08:52:07;23.58;;;12.80;;
67193;SDS011;54121;53.508;49.422;2023-02-15T08:57:35;22.35;;;11.60;;
67193;SDS011;54121;53.508;49.422;2023-02-15T09:00:02;24.00;;;12.07;;
67193;SDS011;54121;53.508;49.422;2023-02-15T09:02:35;18.02;;;10.20;;
67193;SDS011;54121;53.508;49.422;2023-02-15T09:05:18;19.45;;;10.68;;
67193;SDS011;54121;53.508;49.422;2023-02-15T09:07:47;23.08;;;10.98;;
67193;SDS011;54121;53.508;49.422;2023-02-15T09:10:13;28.73;;;14.55;;
67193;SDS011;54121;53.508;49.422;2023-02-15T09:12:55;21.58;;;10.10;;
67193;SDS011;54121;53.508;49.422;2023-02-15T09:15:21;22.40;;;10.10;;
67193;SDS011;54121;53.508;49.422;2023-02-15T09:17:48;26.13;;;12.38;;
67193;SDS011;54121;53.508;49.422;2023-02-15T09:20:26;27.95;;;16.65;;
67193;SDS011;54121;53.508;49.422;2023-02-15T09:23:05;20.60;;;11.30;;
67193;SDS011;54121;53.508;49.422;2023-02-15T09:25:31;19.40;;;11.38;;
67193;SDS011;54121;53.508;49.422;2023-02-15T09:28:00;27.17;;;13.40;;
67193;SDS011;54121;53.508;49.422;2023-02-15T09:30:26;23.98;;;11.38;;
67193;SDS011;54121;53.508;49.422;2023-02-15T09:32:53;17.60;;;10.90;;
67193;SDS011;54121;53.508;49.422;2023-02-15T09:35:30;31.33;;;14.55;;
67193;SDS011;54121;53.508;49.422;2023-02-15T09:37:58;25.25;;;12.77;;
67193;SDS011;54121;53.508;49.422;2023-02-15T09:40:24;26.17;;;13.35;;
67193;SDS011;54121;53.508;49.422;2023-02-15T09:43:06;26.15;;;14.40;;
67193;SDS011;54121;53.508;49.422;2023-02-15T09:48:43;29.15;;;15.75;;
67193;SDS011;54121;53.508;49.422;2023-02-15T09:57:35;25.38;;;13.50;;
67193;SDS011;54121;53.508;49.422;2023-02-15T10:00:22;26.08;;;14.98;;
67193;SDS011;54121;53.508;49.422;2023-02-15T10:03:31;18.50;;;11.10;;
67193;SDS011;54121;53.508;49.422;2023-02-15T10:11:47;20.73;;;11.05;;
67193;SDS011;54121;53.508;49.422;2023-02-15T10:20:32;17.77;;;9.18;;
67193;SDS011;54121;53.508;49.422;2023-02-15T10:26:16;22.02;;;12.20;;
67193;SDS011;54121;53.508;49.422;2023-02-15T10:28:53;32.25;;;18.65;;
67193;SDS011;54121;53.508;49.422;2023-02-15T10:31:39;23.33;;;13.00;;
67193;SDS011;54121;53.508;49.422;2023-02-15T10:45:10;18.70;;;11.25;;
67193;SDS011;54121;53.508;49.422;2023-02-15T10:48:04;25.83;;;12.95;;
67193;SDS011;54121;53.508;49.422;2023-02-15T10:50:49;22.17;;;12.60;;
67193;SDS011;54121;53.508;49.422;2023-02-15T10:53:26;20.58;;;10.98;;
67193;SDS011;54121;53.508;49.422;2023-02-15T11:04:53;22.02;;;13.07;;
67193;SDS011;54121;53.508;49.422;2023-02-15T11:07:28;21.65;;;12.52;;
67193;SDS011;54121;53.508;49.422;2023-02-15T11:12:45;31.80;;;18.83;;
67193;SDS011;54121;53.508;49.422;2023-02-15T11:23:23;22.77;;;12.23;;
67193;SDS011;54121;53.508;49.422;2023-02-15T11:25:56;25.02;;;11.85;;
67193;SDS011;54121;53.508;49.422;2023-02-15T11:28:31;16.85;;;10.45;;
67193;SDS011;54121;53.508;49.422;2023-02-15T11:31:35;14.13;;;8.25;;
67193;SDS011;54121;53.508;49.422;2023-02-15T11:37:37;20.80;;;9.35;;
67193;SDS011;54121;53.508;49.422;2023-02-15T11:42:45;16.58;;;9.13;;
67193;SDS011;54121;53.508;49.422;2023-02-15T11:45:31;21.38;;;9.05;;
67193;SDS011;54121;53.508;49.422;2023-02-15T11:48:00;15.48;;;9.00;;
67193;SDS011;54121;53.508;49.422;2023-02-15T11:50:39;20.25;;;7.88;;
67193;SDS011;54121;53.508;49.422;2023-02-15T11:53:25;18.60;;;9.32;;
67193;SDS011;54121;53.508;49.422;2023-02-15T11:56:18;13.02;;;8.27;;
67193;SDS011;54121;53.508;49.422;2023-02-15T12:01:30;15.65;;;9.38;;
67193;SDS011;54121;53.508;49.422;2023-02-15T12:04:10;17.13;;;8.93;;
67193;SDS011;54121;53.508;49.422;2023-02-15T12:07:04;15.07;;;7.30;;
67193;SDS011;54121;53.508;49.422;2023-02-15T12:10:02;25.80;;;9.35;;
67193;SDS011;54121;53.508;49.422;2023-02-15T12:15:38;26.58;;;12.60;;
67193;SDS011;54121;53.508;49.422;2023-02-15T12:21:31;33.20;;;20.88;;
67193;SDS011;54121;53.508;49.422;2023-02-15T12:24:21;56.65;;;33.22;;
67193;SDS011;54121;53.508;49.422;2023-02-15T12:36:00;32.30;;;16.38;;
67193;SDS011;54121;53.508;49.422;2023-02-15T12:44:21;20.05;;;10.45;;
67193;SDS011;54121;53.508;49.422;2023-02-15T12:50:12;19.73;;;11.38;;
67193;SDS011;54121;53.508;49.422;2023-02-15T12:53:02;25.85;;;12.88;;
67193;SDS011;54121;53.508;49.422;2023-02-15T12:55:56;21.17;;;10.45;;
67193;SDS011;54121;53.508;49.422;2023-02-15T12:58:25;27.27;;;11.63;;
67193;SDS011;54121;53.508;49.422;2023-02-15T13:06:31;21.23;;;11.25;;
67193;SDS011;54121;53.508;49.422;2023-02-15T13:12:29;20.63;;;10.38;;
67193;SDS011;54121;53.508;49.422;2023-02-15T13:15:22;24.48;;;11.30;;
67193;SDS011;54121;53.508;49.422;2023-02-15T13:18:15;26.67;;;12.68;;
67193;SDS011;54121;53.508;49.422;2023-02-15T13:21:04;27.17;;;12.15;;
67193;SDS011;54121;53.508;49.422;2023-02-15T13:23:37;17.15;;;9.75;;
67193;SDS011;54121;53.508;49.422;2023-02-15T13:26:11;17.90;;;9.40;;
67193;SDS011;54121;53.508;49.422;2023-02-15T13:28:45;18.77;;;8.68;;
67193;SDS011;54121;53.508;49.422;2023-02-15T13:31:15;17.08;;;8.32;;
67193;SDS011;54121;53.508;49.422;2023-02-15T13:33:51;18.15;;;8.10;;
67193;SDS011;54121;53.508;49.422;2023-02-15T13:39:31;18.35;;;8.32;;
67193;SDS011;54121;53.508;49.422;2023-02-15T14:16:03;16.40;;;8.55;;
67193;SDS011;54121;53.508;49.422;2023-02-15T14:29:44;18.65;;;7.68;;
67193;SDS011;54121;53.508;49.422;2023-02-15T14:35:17;15.45;;;7.63;;
67193;SDS011;54121;53.508;49.422;2023-02-15T14:37:58;15.88;;;7.53;;
67193;SDS011;54121;53.508;49.422;2023-02-15T14:49:15;21.05;;;8.63;;
67193;SDS011;54121;53.508;49.422;2023-02-15T15:02:21;20.92;;;8.65;;
67193;SDS011;54121;53.508;49.422;2023-02-15T15:08:20;46.78;;;21.13;;
67193;SDS011;54121;53.508;49.422;2023-02-15T15:17:05;67.63;;;23.75;;
67193;SDS011;54121;53.508;49.422;2023-02-15T15:29:12;25.08;;;11.95;;
67193;SDS011;54121;53.508;49.422;2023-02-15T15:31:50;32.38;;;13.00;;
67193;SDS011;54121;53.508;49.422;2023-02-15T15:40:29;26.27;;;10.90;;
67193;SDS011;54121;53.508;49.422;2023-02-15T15:49:20;36.83;;;11.20;;
67193;SDS011;54121;53.508;49.422;2023-02-15T15:51:49;24.55;;;9.43;;
67193;SDS011;54121;53.508;49.422;2023-02-15T15:54:18;31.73;;;11.63;;
67193;SDS011;54121;53.508;49.422;2023-02-15T15:56:55;28.70;;;8.18;;
67193;SDS011;54121;53.508;49.422;2023-02-15T15:59:28;33.08;;;11.57;;
67193;SDS011;54121;53.508;49.422;2023-02-15T16:02:07;21.83;;;7.65;;
67193;SDS011;54121;53.508;49.422;2023-02-15T16:07:13;31.02;;;9.73;;
67193;SDS011;54121;53.508;49.422;2023-02-15T16:09:59;15.70;;;6.40;;
67193;SDS011;54121;53.508;49.422;2023-02-15T16:12:52;25.92;;;10.38;;
67193;SDS011;54121;53.508;49.422;2023-02-15T16:15:25;26.63;;;10.93;;
67193;SDS011;54121;53.508;49.422;2023-02-15T16:18:18;19.17;;;7.75;;
67193;SDS011;54121;53.508;49.422;2023-02-15T16:20:55;31.98;;;10.02;;
67193;SDS011;54121;53.508;49.422;2023-02-15T16:29:27;36.75;;;12.32;;
67193;SDS011;54121;53.508;49.422;2023-02-15T16:32:02;31.58;;;11.57;;
67193;SDS011;54121;53.508;49.422;2023-02-15T16:34:37;48.38;;;20.45;;
67193;SDS011;54121;53.508;49.422;2023-02-15T16:37:14;54.60;;;20.52;;
67193;SDS011;54121;53.508;49.422;2023-02-15T16:39:45;56.15;;;23.40;;
67193;SDS011;54121;53.508;49.422;2023-02-15T16:42:17;59.72;;;24.48;;
67193;SDS011;54121;53.508;49.422;2023-02-15T16:44:45;86.13;;;36.78;;
67193;SDS011;54121;53.508;49.422;2023-02-15T16:47:35;70.72;;;29.48;;
67193;SDS011;54121;53.508;49.422;2023-02-15T16:50:20;64.30;;;28.40;;
67193;SDS011;54121;53.508;49.422;2023-02-15T16:52:56;80.57;;;33.22;;
67193;SDS011;54121;53.508;49.422;2023-02-15T16:55:40;87.45;;;34.50;;
67193;SDS011;54121;53.508;49.422;2023-02-15T16:58:38;86.13;;;35.50;;
67193;SDS011;54121;53.508;49.422;2023-02-15T17:01:13;99.32;;;35.80;;
67193;SDS011;54121;53.508;49.422;2023-02-15T17:03:50;92.35;;;32.25;;
67193;SDS011;54121;53.508;49.422;2023-02-15T17:06:41;63.97;;;24.67;;
67193;SDS011;54121;53.508;49.422;2023-02-15T17:09:26;42.88;;;18.52;;
67193;SDS011;54121;53.508;49.422;2023-02-15T17:12:00;49.72;;;19.55;;
67193;SDS011;54121;53.508;49.422;2023-02-15T17:15:04;66.90;;;24.75;;
67193;SDS011;54121;53.508;49.422;2023-02-15T17:18:11;62.42;;;20.23;;
67193;SDS011;54121;53.508;49.422;2023-02-15T17:20:52;83.68;;;30.83;;
67193;SDS011;54121;53.508;49.422;2023-02-15T17:23:40;75.85;;;33.42;;
67193;SDS011;54121;53.508;49.422;2023-02-15T17:31:49;66.00;;;27.38;;
67193;SDS011;54121;53.508;49.422;2023-02-15T17:38:05;100.82;;;41.10;;
67193;SDS011;54121;53.508;49.422;2023-02-15T17:40:42;86.00;;;33.85;;
67193;SDS011;54121;53.508;49.422;2023-02-15T17:43:09;75.75;;;29.60;;
67193;SDS011;54121;53.508;49.422;2023-02-15T17:45:59;84.88;;;35.22;;
67193;SDS011;54121;53.508;49.422;2023-02-15T17:48:37;89.13;;;35.05;;
67193;SDS011;54121;53.508;49.422;2023-02-15T17:51:13;80.13;;;31.27;;
67193;SDS011;54121;53.508;49.422;2023-02-15T17:54:02;83.53;;;31.00;;
67193;SDS011;54121;53.508;49.422;2023-02-15T17:56:47;85.22;;;29.58;;
67193;SDS011;54121;53.508;49.422;2023-02-15T17:59:13;75.82;;;30.42;;
67193;SDS011;54121;53.508;49.422;2023-02-15T18:01:47;83.10;;;36.03;;
67193;SDS011;54121;53.508;49.422;2023-02-15T18:04:33;73.00;;;29.05;;
67193;SDS011;54121;53.508;49.422;2023-02-15T18:07:19;88.25;;;32.67;;
67193;SDS011;54121;53.508;49.422;2023-02-15T18:10:12;79.90;;;30.55;;
67193;SDS011;54121;53.508;49.422;2023-02-15T18:13:01;78.22;;;31.45;;
67193;SDS011;54121;53.508;49.422;2023-02-15T18:15:28;83.13;;;32.17;;
67193;SDS011;54121;53.508;49.422;2023-02-15T18:17:54;70.35;;;28.95;;
67193;SDS011;54121;53.508;49.422;2023-02-15T18:20:32;81.95;;;34.92;;
67193;SDS011;54121;53.508;49.422;2023-02-15T18:23:04;79.32;;;32.28;;
67193;SDS011;54121;53.508;49.422;2023-02-15T18:25:31;55.47;;;24.27;;
67193;SDS011;54121;53.508;49.422;2023-02-15T18:27:57;26.02;;;11.82;;
67193;SDS011;54121;53.508;49.422;2023-02-15T18:30:24;28.77;;;11.25;;
67193;SDS011;54121;53.508;49.422;2023-02-15T18:32:51;27.58;;;9.90;;
67193;SDS011;54121;53.508;49.422;2023-02-15T18:35:21;23.05;;;9.35;;
67193;SDS011;54121;53.508;49.422;2023-02-15T18:37:51;23.27;;;10.02;;
67193;SDS011;54121;53.508;49.422;2023-02-15T18:40:26;36.50;;;13.02;;
67193;SDS011;54121;53.508;49.422;2023-02-15T18:42:53;29.58;;;12.95;;
67193;SDS011;54121;53.508;49.422;2023-02-15T18:45:22;30.70;;;11.90;;
67193;SDS011;54121;53.508;49.422;2023-02-15T18:47:53;29.77;;;13.70;;
67193;SDS011;54121;53.508;49.422;2023-02-15T18:50:20;31.60;;;13.23;;
67193;SDS011;54121;53.508;49.422;2023-02-15T18:52:49;22.55;;;10.10;;
67193;SDS011;54121;53.508;49.422;2023-02-15T18:55:20;44.00;;;16.27;;
67193;SDS011;54121;53.508;49.422;2023-02-15T18:57:50;32.70;;;13.80;;
67193;SDS011;54121;53.508;49.422;2023-02-15T19:00:22;38.95;;;15.43;;
67193;SDS011;54121;53.508;49.422;2023-02-15T19:02:54;55.83;;;20.50;;
67193;SDS011;54121;53.508;49.422;2023-02-15T19:05:21;64.65;;;23.10;;
67193;SDS011;54121;53.508;49.422;2023-02-15T19:07:48;80.72;;;30.15;;
67193;SDS011;54121;53.508;49.422;2023-02-15T19:10:20;95.95;;;32.80;;